Kake Airport
PAFE : now visible

Airfield :











YOU CAN JOIN US ON...

 
LOGIN :

Register | Disclaimer

   EN    FR    IT 

 









Legend :    VFR   Marginal VFR   IFR   Intensive IFR   Very Intensive IFR
Visi :
Ceiling :
>= 8 km
>= 3000ft
5 to 8 km
1000 to 3000 ft
1500m to 5 km
500 to 1000 ft
800 to 1500m
200 to 500 ft
< 800m
< 200 ft
Symbols :   Thunderstorms  Fog  Heavy snow  Heavy precipitations  Wind > 20 kt






- Airport Elevation : 172 ft
- IATA code : AFE


PAFE - Kake

CURRENT METAR :
  • 251409Z AUTO 07004KT 10SM OVC008 01/01 A2991 RMK AO2 FZRANO $

EXPIRED METARs :
  • 251356Z AUTO 06005KT 10SM OVC010 01/01 A2990 RMK AO2 CIG 007V010 SLP139 T00110006 FZRANO $
  • 251256Z AUTO 06005KT 10SM OVC010 01/01 A2991 RMK AO2 SLP140 T00110006 FZRANO $
  • 251156Z AUTO 06004KT 10SM OVC010 01/01 A2991 RMK AO2 SLP140 70006 T00060006 10011 21006 51020 FZRANO $

TAF N/A
PAZA FIR / North America



MET'MAP, your aeronautical weather chart ! - Copyright ORBIFLY December 2007 - Disclaimer

ORBIFLY MET'MAP TEAM :

Programming & Development : Alexandra Zaïnal
Concept & original design : Baudouin d'Aumeries
Assistance for programming : Marc-Olivier Méhu
Technical & hardware support : Manuel Goepfert

Contact : metmap@orbifly.com




SOURCES & CREDITS :

   NOAA       Earth
Advisory